Time;durP1;ratioP1;P1;durP2;ratioP2;P2;SDS_P1;SDS_P2;PMS_P1;PMS_P2;Temp;Humidity;BMP_temperature;BMP_pressure;BME280_temperature;BME280_humidity;BME280_pressure;Samples;Min_cycle;Max_cycle;Signal;HPM_P1;HPM_P2
2022/07/31 00:00:10;;;;;;;2.67;2.03;;;;;;;19.92;100.00;101715.88;2615413;36;20064;-47
2022/07/31 00:02:38;;;;;;;3.30;2.13;;;;;;;19.93;100.00;101720.31;2614959;36;20034;-45
2022/07/31 00:05:10;;;;;;;2.70;1.95;;;;;;;20.02;100.00;101711.03;2615984;36;20063;-46
2022/07/31 00:07:47;;;;;;;2.20;1.80;;;;;;;20.00;100.00;101717.75;2615388;54;20057;-47
2022/07/31 00:10:16;;;;;;;3.72;2.20;;;;;;;20.12;100.00;101716.31;2615251;36;20077;-49
2022/07/31 00:12:44;;;;;;;4.97;2.10;;;;;;;20.01;100.00;101719.41;2614964;36;20041;-46
2022/07/31 00:15:14;;;;;;;3.45;2.40;;;;;;;19.93;100.00;101717.59;2615354;36;20555;-47
2022/07/31 00:17:43;;;;;;;4.63;2.40;;;;;;;19.89;100.00;101722.56;2614783;36;20037;-47
2022/07/31 00:20:14;;;;;;;4.40;2.30;;;;;;;19.76;100.00;101731.28;2614933;36;20038;-46
2022/07/31 00:22:47;;;;;;;4.75;2.60;;;;;;;19.50;100.00;101723.31;2615110;36;20061;-49
2022/07/31 00:25:17;;;;;;;5.32;2.70;;;;;;;19.47;100.00;101720.09;2615760;36;20545;-48
2022/07/31 00:27:46;;;;;;;4.88;2.83;;;;;;;19.37;100.00;101723.84;2615124;36;20026;-47
2022/07/31 00:30:16;;;;;;;4.60;2.45;;;;;;;19.40;100.00;101722.66;2615583;36;20038;-49
2022/07/31 00:32:44;;;;;;;4.05;2.70;;;;;;;19.42;100.00;101720.63;2614697;36;20058;-49
2022/07/31 00:35:13;;;;;;;3.70;2.30;;;;;;;19.37;100.00;101714.81;2615074;36;20034;-49
2022/07/31 00:37:43;;;;;;;4.95;3.38;;;;;;;19.31;100.00;101718.25;2613808;36;20035;-47
2022/07/31 00:40:16;;;;;;;4.30;2.60;;;;;;;19.29;100.00;101706.63;2614955;31;20058;-50
2022/07/31 00:42:45;;;;;;;3.85;2.70;;;;;;;19.24;100.00;101713.47;2614979;36;20034;-47
2022/07/31 00:45:14;;;;;;;5.40;3.00;;;;;;;19.16;100.00;101702.56;2615401;31;20162;-46
2022/07/31 00:47:42;;;;;;;4.93;2.78;;;;;;;19.15;100.00;101711.75;2614656;36;20046;-46
2022/07/31 00:50:13;;;;;;;3.67;3.00;;;;;;;19.13;100.00;101705.63;2614092;31;21842;-47
2022/07/31 00:52:41;;;;;;;3.88;2.60;;;;;;;19.08;100.00;101697.13;2614819;36;20626;-49
2022/07/31 00:55:10;;;;;;;5.50;3.00;;;;;;;19.04;100.00;101690.31;2615163;36;20043;-47
2022/07/31 00:57:42;;;;;;;3.00;2.50;;;;;;;19.12;100.00;101683.97;2614937;36;20034;-48
2022/07/31 01:00:12;;;;;;;4.88;2.33;;;;;;;19.15;100.00;101681.75;2615132;36;20057;-47
2022/07/31 01:02:40;;;;;;;5.97;2.60;;;;;;;19.22;100.00;101674.56;2614294;36;20061;-47
2022/07/31 01:05:10;;;;;;;5.03;3.10;;;;;;;19.27;100.00;101676.78;2615223;36;20038;-46
2022/07/31 01:07:38;;;;;;;3.85;2.47;;;;;;;19.23;100.00;101670.00;2615151;36;20038;-45
2022/07/31 01:10:11;;;;;;;3.13;2.57;;;;;;;19.22;100.00;101671.84;2614999;36;20573;-47
2022/07/31 01:12:49;;;;;;;4.03;2.40;;;;;;;19.19;100.00;101665.91;2614968;31;20349;-50
2022/07/31 01:15:17;;;;;;;4.90;2.87;;;;;;;19.24;100.00;101664.34;2615165;31;20610;-46
2022/07/31 01:17:47;;;;;;;4.18;2.65;;;;;;;19.19;100.00;101666.75;2614460;36;20034;-50
2022/07/31 01:20:16;;;;;;;4.38;2.47;;;;;;;19.18;100.00;101661.47;2614797;31;20037;-48
2022/07/31 01:23:03;;;;;;;3.78;2.40;;;;;;;19.11;100.00;101664.03;2615330;36;20054;-47
2022/07/31 01:25:42;;;;;;;3.20;2.60;;;;;;;19.11;100.00;101661.31;2615170;36;20073;-46
2022/07/31 01:28:25;;;;;;;4.38;2.58;;;;;;;19.17;100.00;101660.63;2614838;36;20038;-49
2022/07/31 01:31:03;;;;;;;3.47;2.65;;;;;;;19.23;100.00;101662.66;2615539;36;20030;-48
2022/07/31 01:33:36;;;;;;;2.67;2.25;;;;;;;19.24;100.00;101664.34;2614612;36;20042;-47
2022/07/31 01:36:09;;;;;;;4.45;2.72;;;;;;;19.12;100.00;101657.53;2614571;36;20034;-45
2022/07/31 01:38:42;;;;;;;4.13;2.90;;;;;;;19.07;100.00;101651.75;2614915;36;20061;-46
2022/07/31 01:41:14;;;;;;;5.07;3.00;;;;;;;19.09;100.00;101649.69;2614727;36;20046;-46
2022/07/31 01:43:45;;;;;;;4.40;2.95;;;;;;;19.11;100.00;101646.78;2615566;36;20398;-46
2022/07/31 01:46:20;;;;;;;4.72;2.63;;;;;;;19.18;100.00;101653.28;2614589;36;20038;-51
2022/07/31 01:48:50;;;;;;;5.78;3.17;;;;;;;19.22;100.00;101652.75;2615328;36;20022;-46
2022/07/31 01:51:20;;;;;;;8.60;4.45;;;;;;;19.15;100.00;101649.00;2614894;36;20042;-45
2022/07/31 01:53:50;;;;;;;6.85;4.28;;;;;;;19.22;100.00;101641.00;2614947;36;20046;-47
2022/07/31 01:56:19;;;;;;;5.45;3.42;;;;;;;19.23;100.00;101649.00;2615175;36;20444;-49
2022/07/31 01:58:49;;;;;;;5.47;3.10;;;;;;;19.23;100.00;101642.69;2614862;36;20042;-48
2022/07/31 02:01:21;;;;;;;9.05;3.33;;;;;;;19.36;100.00;101655.78;2614768;36;20038;-50
2022/07/31 02:03:52;;;;;;;6.60;3.47;;;;;;;19.48;100.00;101659.84;2615233;36;20065;-47
2022/07/31 02:06:23;;;;;;;3.58;2.90;;;;;;;19.46;100.00;101671.97;2614706;36;20145;-48
2022/07/31 02:08:53;;;;;;;3.97;3.20;;;;;;;19.39;100.00;101660.88;2615325;54;20034;-49
2022/07/31 02:11:25;;;;;;;6.55;3.25;;;;;;;19.37;100.00;101652.03;2615476;47;20035;-47
2022/07/31 02:13:55;;;;;;;6.30;3.47;;;;;;;19.53;100.00;101651.97;2614945;36;20057;-47
2022/07/31 02:16:28;;;;;;;4.93;3.15;;;;;;;19.47;100.00;101652.69;2615025;31;20041;-47
2022/07/31 02:18:58;;;;;;;6.10;3.20;;;;;;;19.32;100.00;101654.44;2616653;36;20396;-46
2022/07/31 02:21:27;;;;;;;4.43;3.30;;;;;;;19.29;100.00;101657.50;2616044;36;20034;-46
2022/07/31 02:23:56;;;;;;;4.10;3.10;;;;;;;19.28;100.00;101653.94;2617187;31;20034;-50
2022/07/31 02:26:25;;;;;;;6.07;2.90;;;;;;;19.20;100.00;101646.63;2616192;31;20069;-47
2022/07/31 02:28:55;;;;;;;4.65;2.95;;;;;;;19.12;100.00;101638.44;2615932;36;20034;-49
2022/07/31 02:31:27;;;;;;;4.18;2.95;;;;;;;19.14;100.00;101633.69;2609984;36;20564;-48
2022/07/31 02:33:55;;;;;;;6.85;3.22;;;;;;;19.10;100.00;101626.84;2614484;36;20571;-48
2022/07/31 02:36:26;;;;;;;5.93;3.45;;;;;;;19.09;100.00;101622.41;2615153;36;20039;-47
2022/07/31 02:38:57;;;;;;;4.88;3.53;;;;;;;19.14;100.00;101620.03;2615702;36;20552;-46
2022/07/31 02:41:27;;;;;;;4.85;3.10;;;;;;;19.14;100.00;101614.56;2614609;36;20038;-46
2022/07/31 02:43:56;;;;;;;5.35;2.92;;;;;;;19.18;100.00;101617.78;2615485;36;20041;-46
2022/07/31 02:46:27;;;;;;;6.43;3.53;;;;;;;19.19;100.00;101616.78;2614803;36;20042;-47
2022/07/31 02:48:57;;;;;;;5.47;3.33;;;;;;;19.15;100.00;101624.44;2615855;36;20062;-46
2022/07/31 02:51:25;;;;;;;6.35;3.35;;;;;;;19.15;100.00;101618.97;2615622;36;20038;-47
2022/07/31 02:53:54;;;;;;;4.75;3.50;;;;;;;19.06;100.00;101618.16;2615516;36;20558;-46
2022/07/31 02:56:23;;;;;;;5.68;3.78;;;;;;;19.01;100.00;101620.56;2615109;31;20035;-50
2022/07/31 02:58:52;;;;;;;5.13;3.63;;;;;;;19.07;100.00;101625.31;2615639;36;20053;-54
2022/07/31 03:01:20;;;;;;;8.82;4.22;;;;;;;19.03;100.00;101617.66;2615615;36;20065;-46
2022/07/31 03:03:51;;;;;;;5.55;4.00;;;;;;;19.01;100.00;101614.25;2616139;36;20038;-45
2022/07/31 03:06:19;;;;;;;5.88;3.80;;;;;;;18.99;100.00;101616.31;2614876;36;20038;-48
2022/07/31 03:08:48;;;;;;;6.50;4.13;;;;;;;19.05;100.00;101611.00;2616087;36;20030;-46
2022/07/31 03:11:16;;;;;;;5.77;3.43;;;;;;;19.08;100.00;101607.09;2615966;36;20295;-48
2022/07/31 03:13:45;;;;;;;4.57;3.92;;;;;;;19.12;100.00;101604.84;2616691;36;20347;-49
2022/07/31 03:16:14;;;;;;;5.90;4.03;;;;;;;19.02;100.00;101605.03;2614939;36;20478;-51
2022/07/31 03:18:43;;;;;;;7.10;4.20;;;;;;;19.10;100.00;101596.84;2615921;36;20531;-46
2022/07/31 03:21:14;;;;;;;6.72;3.97;;;;;;;19.10;100.00;101596.84;2614914;36;20053;-46
2022/07/31 03:23:43;;;;;;;6.78;4.05;;;;;;;19.09;100.00;101589.69;2615964;36;20065;-46
2022/07/31 03:26:13;;;;;;;7.35;3.88;;;;;;;19.11;100.00;101595.81;2614643;36;20023;-47
2022/07/31 03:28:42;;;;;;;5.68;4.25;;;;;;;19.17;100.00;101584.22;2615429;36;20031;-48
2022/07/31 03:31:10;;;;;;;5.13;3.75;;;;;;;19.20;100.00;101592.03;2615121;36;20049;-45
2022/07/31 03:33:39;;;;;;;6.72;5.15;;;;;;;19.13;100.00;101593.75;2615676;36;20034;-46
2022/07/31 03:36:08;;;;;;;7.43;4.82;;;;;;;19.04;100.00;101578.44;2614601;36;20026;-46
2022/07/31 03:38:38;;;;;;;;;;;;;;;19.15;100.00;101580.78;2616772;36;20547;-48
2022/07/31 03:41:07;;;;;;;6.07;5.20;;;;;;;19.13;100.00;101574.66;2615147;36;19958;-45
2022/07/31 03:43:36;;;;;;;6.00;4.55;;;;;;;19.13;100.00;101574.66;2615587;36;20038;-45
2022/07/31 03:46:05;;;;;;;7.85;5.10;;;;;;;19.07;100.00;101570.75;2615324;36;20069;-47
2022/07/31 03:48:33;;;;;;;8.88;3.95;;;;;;;19.03;100.00;101574.00;2615341;36;20045;-46
2022/07/31 03:51:02;;;;;;;6.18;4.32;;;;;;;19.03;100.00;101579.47;2615614;36;20473;-48
2022/07/31 03:53:31;;;;;;;7.40;4.47;;;;;;;19.11;100.00;101575.84;2616181;36;20732;-47
2022/07/31 03:56:06;;;;;;;6.70;4.80;;;;;;;19.16;100.00;101571.59;2615780;36;20038;-48
2022/07/31 03:58:34;;;;;;;8.77;4.85;;;;;;;19.14;100.00;101565.47;2615143;36;20034;-50
2022/07/31 04:01:03;;;;;;;7.18;4.88;;;;;;;19.11;100.00;101564.94;2615379;36;20041;-48
2022/07/31 04:03:32;;;;;;;6.43;5.07;;;;;;;19.16;100.00;101577.03;2614689;36;20030;-47
2022/07/31 04:06:00;;;;;;;8.27;5.80;;;;;;;19.12;100.00;101572.09;2615092;36;20081;-47
2022/07/31 04:08:29;;;;;;;8.63;5.63;;;;;;;19.15;100.00;101579.94;2615755;36;20057;-48
2022/07/31 04:10:57;;;;;;;11.57;5.28;;;;;;;19.03;100.00;101568.56;2615093;36;20061;-46
2022/07/31 04:13:28;;;;;;;7.93;5.57;;;;;;;19.00;100.00;101571.63;2615235;36;20555;-46
2022/07/31 04:15:56;;;;;;;6.22;5.15;;;;;;;19.08;100.00;101564.28;2615279;36;20836;-48
2022/07/31 04:18:24;;;;;;;8.87;5.07;;;;;;;19.09;100.00;101567.84;2614914;36;20042;-47
2022/07/31 04:20:53;;;;;;;11.23;6.07;;;;;;;19.00;100.00;101568.91;2615239;36;20302;-51
2022/07/31 04:23:21;;;;;;;11.50;5.60;;;;;;;18.99;100.00;101575.38;2615418;36;20310;-44
2022/07/31 04:25:49;;;;;;;8.20;6.03;;;;;;;19.04;100.00;101571.09;2615722;36;20885;-49
2022/07/31 04:28:17;;;;;;;10.25;6.13;;;;;;;19.05;100.00;101566.50;2615633;31;20524;-47
2022/07/31 04:30:48;;;;;;;7.78;6.05;;;;;;;18.99;100.00;101565.34;2615438;36;20664;-47
2022/07/31 04:33:17;;;;;;;11.50;7.38;;;;;;;18.85;100.00;101558.66;2614437;36;20069;-47
2022/07/31 04:35:45;;;;;;;10.95;6.97;;;;;;;18.93;100.00;101568.72;2614952;36;20042;-47
2022/07/31 04:38:17;;;;;;;10.15;6.20;;;;;;;18.97;100.00;101561.06;2615154;36;20030;-51
2022/07/31 04:40:46;;;;;;;11.15;6.82;;;;;;;18.99;100.00;101556.28;2615551;36;20149;-48
2022/07/31 04:43:15;;;;;;;12.00;6.55;;;;;;;19.06;100.00;101557.28;2615404;36;20057;-47
2022/07/31 04:45:44;;;;;;;10.80;6.85;;;;;;;19.06;100.00;101568.19;2615267;36;20076;-48
2022/07/31 04:48:15;;;;;;;7.55;6.75;;;;;;;19.07;100.00;101562.56;2615006;31;20022;-49
2022/07/31 04:50:43;;;;;;;12.55;7.45;;;;;;;19.06;100.00;101558.13;2615933;36;20491;-48
2022/07/31 04:53:12;;;;;;;8.10;5.65;;;;;;;19.14;100.00;101549.09;2614686;36;20065;-46
2022/07/31 04:55:40;;;;;;;10.23;6.90;;;;;;;19.19;100.00;101554.00;2615588;31;20022;-47
2022/07/31 04:58:09;;;;;;;11.52;7.50;;;;;;;19.07;100.00;101553.53;2614998;36;20023;-48
2022/07/31 05:00:37;;;;;;;11.40;7.60;;;;;;;19.11;100.00;101549.44;2615409;36;20086;-48
2022/07/31 05:03:06;;;;;;;10.23;7.50;;;;;;;19.21;100.00;101539.16;2614522;36;20594;-48
2022/07/31 05:05:37;;;;;;;13.97;8.17;;;;;;;19.24;100.00;101549.72;2615217;36;20088;-49
2022/07/31 05:08:06;;;;;;;11.18;7.40;;;;;;;19.19;100.00;101541.22;2614792;36;20057;-46
2022/07/31 05:13:27;;;;;;;9.65;7.50;;;;;;;19.32;100.00;101553.47;2614259;36;20035;-46
2022/07/31 05:15:55;;;;;;;10.07;7.40;;;;;;;19.34;100.00;101551.38;2615356;31;20045;-48
2022/07/31 05:18:24;;;;;;;11.37;7.90;;;;;;;19.46;100.00;101547.22;2615022;36;20042;-48
2022/07/31 05:20:54;;;;;;;11.70;7.43;;;;;;;19.48;100.00;101553.38;2615133;36;20284;-47
2022/07/31 05:23:23;;;;;;;10.90;7.50;;;;;;;19.47;100.00;101548.09;2615149;36;20049;-49
2022/07/31 05:25:51;;;;;;;11.27;7.20;;;;;;;19.74;100.00;101549.47;2615170;36;20566;-48
2022/07/31 05:28:19;;;;;;;12.17;7.47;;;;;;;19.55;100.00;101559.84;2615168;36;20330;-47
2022/07/31 05:30:47;;;;;;;13.87;7.27;;;;;;;19.47;100.00;101562.59;2615325;36;20314;-49
2022/07/31 05:33:16;;;;;;;15.20;8.43;;;;;;;19.42;100.00;101563.13;2615249;31;20053;-47
2022/07/31 05:35:44;;;;;;;10.88;7.53;;;;;;;19.45;100.00;101556.47;2614682;36;20039;-48
2022/07/31 05:38:15;;;;;;;14.85;7.43;;;;;;;19.44;100.00;101560.22;2614761;36;20085;-46
2022/07/31 05:40:44;;;;;;;11.18;7.75;;;;;;;19.38;100.00;101561.78;2615045;36;20038;-47
2022/07/31 05:43:12;;;;;;;9.80;7.20;;;;;;;19.49;100.00;101551.50;2615356;36;20394;-47
2022/07/31 05:45:41;;;;;;;11.27;7.90;;;;;;;19.45;100.00;101564.66;2615145;36;20034;-47
2022/07/31 05:48:09;;;;;;;11.07;7.43;;;;;;;19.38;100.00;101563.66;2614644;31;20452;-48
2022/07/31 05:50:37;;;;;;;9.88;7.53;;;;;;;19.37;100.00;101564.69;2614870;36;20026;-52
2022/07/31 05:53:05;;;;;;;12.60;7.53;;;;;;;19.41;100.00;101561.41;2615024;36;20615;-48
2022/07/31 05:55:36;;;;;;;10.30;7.68;;;;;;;19.60;100.00;101560.13;2615223;36;20038;-50
2022/07/31 05:58:05;;;;;;;10.38;7.35;;;;;;;19.57;100.00;101555.03;2615055;36;20079;-48
2022/07/31 06:00:33;;;;;;;12.68;7.72;;;;;;;19.65;100.00;101556.03;2614939;36;20038;-47
2022/07/31 06:03:01;;;;;;;9.70;7.38;;;;;;;19.64;100.00;101557.91;2614830;36;20065;-48
2022/07/31 06:05:31;;;;;;;9.75;6.82;;;;;;;19.86;100.00;101555.41;2614479;36;20030;-45
2022/07/31 06:07:59;;;;;;;8.20;6.57;;;;;;;19.88;100.00;101548.75;2614781;36;20104;-47
2022/07/31 06:10:29;;;;;;;9.93;6.53;;;;;;;19.72;100.00;101552.38;2614745;31;20069;-49
2022/07/31 06:13:00;;;;;;;13.65;7.28;;;;;;;19.53;100.00;101564.59;2614724;36;20066;-46
2022/07/31 06:15:28;;;;;;;8.73;7.57;;;;;;;19.55;100.00;101554.38;2615178;36;20041;-46
2022/07/31 06:17:57;;;;;;;13.68;7.13;;;;;;;19.56;100.00;101549.75;2614112;36;20038;-49
2022/07/31 06:20:26;;;;;;;8.77;6.80;;;;;;;19.50;100.00;101547.75;2614811;36;20432;-45
2022/07/31 06:22:54;;;;;;;10.68;7.30;;;;;;;19.64;100.00;101554.31;2614741;36;20034;-48
2022/07/31 06:25:23;;;;;;;9.95;6.57;;;;;;;19.61;100.00;101550.91;2615774;31;20420;-47
2022/07/31 06:27:51;;;;;;;8.80;7.05;;;;;;;19.80;100.00;101540.59;2615174;36;20034;-46
2022/07/31 06:30:22;;;;;;;8.67;6.57;;;;;;;20.02;100.00;101540.78;2615107;36;20026;-49
2022/07/31 06:32:50;;;;;;;9.95;6.53;;;;;;;20.15;100.00;101537.47;2614599;36;20840;-46
2022/07/31 06:35:18;;;;;;;7.50;5.95;;;;;;;19.94;100.00;101545.28;2614184;36;20038;-49
2022/07/31 06:37:47;;;;;;;9.23;6.90;;;;;;;19.80;100.00;101551.50;2614498;36;20038;-48
2022/07/31 06:40:15;;;;;;;8.95;6.15;;;;;;;19.85;100.00;101546.38;2614537;36;20030;-50
2022/07/31 06:42:44;;;;;;;12.85;6.45;;;;;;;20.06;100.00;101531.19;2615749;36;20063;-47
2022/07/31 06:45:13;;;;;;;11.75;7.22;;;;;;;20.22;100.00;101536.53;2615056;36;20130;-48
2022/07/31 06:47:43;;;;;;;10.55;6.63;;;;;;;20.19;100.00;101539.63;2614350;36;20137;-49
2022/07/31 06:50:12;;;;;;;11.57;6.95;;;;;;;20.17;100.00;101538.09;2614535;36;20041;-48
2022/07/31 06:52:40;;;;;;;8.38;6.43;;;;;;;20.42;100.00;101544.22;2614871;36;20034;-46
2022/07/31 06:55:10;;;;;;;11.27;7.23;;;;;;;20.31;100.00;101540.88;2615513;31;20542;-47
2022/07/31 06:57:39;;;;;;;8.80;6.88;;;;;;;20.37;100.00;101536.56;2614485;31;20402;-48
2022/07/31 07:00:10;;;;;;;8.50;7.10;;;;;;;20.34;100.00;101538.84;2614414;36;20031;-48
2022/07/31 07:02:38;;;;;;;10.95;6.97;;;;;;;20.13;100.00;101532.19;2615239;36;20031;-46
2022/07/31 07:05:10;;;;;;;10.65;7.22;;;;;;;20.07;100.00;101539.22;2615490;36;20046;-48
2022/07/31 07:07:38;;;;;;;8.18;6.82;;;;;;;20.07;100.00;101543.84;2615081;36;20038;-48
2022/07/31 07:10:07;;;;;;;13.52;7.78;;;;;;;20.06;100.00;101531.19;2615906;36;20038;-51
2022/07/31 07:12:36;;;;;;;9.63;7.38;;;;;;;19.94;100.00;101537.09;2615594;36;20061;-48
2022/07/31 07:15:04;;;;;;;12.13;7.70;;;;;;;19.92;100.00;101543.75;2615676;36;20034;-51
2022/07/31 07:17:33;;;;;;;12.45;8.13;;;;;;;20.03;100.00;101540.59;2615831;31;20030;-49
2022/07/31 07:20:01;;;;;;;12.07;7.13;;;;;;;20.11;100.00;101528.75;2615836;36;20041;-48
2022/07/31 07:22:32;;;;;;;11.05;6.72;;;;;;;20.18;100.00;101535.19;2615652;36;20481;-46
2022/07/31 07:25:01;;;;;;;8.52;6.60;;;;;;;20.31;100.00;101529.94;2615459;36;20073;-47
2022/07/31 07:27:29;;;;;;;11.80;8.07;;;;;;;20.22;100.00;101525.59;2615162;36;20030;-50
2022/07/31 07:29:58;;;;;;;12.23;7.82;;;;;;;20.19;100.00;101538.78;2615756;36;20042;-49
2022/07/31 07:32:26;;;;;;;11.38;8.15;;;;;;;20.20;100.00;101524.06;2614182;31;20563;-49
2022/07/31 07:34:54;;;;;;;9.70;7.78;;;;;;;20.18;100.00;101529.72;2615272;36;20031;-48
2022/07/31 07:37:23;;;;;;;11.10;7.90;;;;;;;20.27;100.00;101539.56;2615495;36;20033;-49
2022/07/31 07:39:58;;;;;;;11.23;8.23;;;;;;;20.36;100.00;101526.69;2616339;36;20046;-48
2022/07/31 07:42:26;;;;;;;11.77;8.30;;;;;;;20.48;100.00;101527.09;2615235;31;20859;-49
2022/07/31 07:44:54;;;;;;;14.75;8.10;;;;;;;20.53;100.00;101527.38;2615467;36;20034;-46
2022/07/31 07:47:22;;;;;;;10.90;7.93;;;;;;;20.76;100.00;101516.41;2615258;36;20476;-51
2022/07/31 07:49:51;;;;;;;12.18;8.90;;;;;;;20.56;100.00;101517.94;2615420;36;20034;-46
2022/07/31 07:52:19;;;;;;;11.27;8.43;;;;;;;20.69;100.00;101520.09;2615299;36;20031;-47
2022/07/31 07:54:47;;;;;;;15.35;9.02;;;;;;;20.79;100.00;101520.66;2615736;36;20061;-48
2022/07/31 07:57:19;;;;;;;14.60;8.73;;;;;;;20.52;100.00;101522.94;2615278;31;20038;-48
2022/07/31 07:59:48;;;;;;;14.80;10.05;;;;;;;20.36;100.00;101523.09;2615673;36;20041;-47
2022/07/31 08:02:16;;;;;;;16.45;9.52;;;;;;;20.39;100.00;101531.78;2615027;36;20070;-47
2022/07/31 08:04:45;;;;;;;16.50;10.10;;;;;;;20.13;100.00;101534.91;2615679;36;20678;-47
2022/07/31 08:07:13;;;;;;;14.57;9.48;;;;;;;20.46;100.00;101527.28;2615716;36;20031;-47
2022/07/31 08:09:41;;;;;;;15.63;9.63;;;;;;;20.64;100.00;101518.72;2616201;36;20035;-46
2022/07/31 08:12:10;;;;;;;12.27;9.30;;;;;;;20.59;100.00;101521.16;2615568;31;20045;-45
2022/07/31 08:14:41;;;;;;;14.45;9.20;;;;;;;20.53;100.00;101521.91;2615879;36;20439;-46
2022/07/31 08:17:13;;;;;;;13.70;9.27;;;;;;;20.51;100.00;101512.19;2614766;36;20023;-51
2022/07/31 08:19:41;;;;;;;14.15;9.73;;;;;;;20.26;100.00;101515.16;2615412;36;20578;-47
2022/07/31 08:22:10;;;;;;;14.13;10.52;;;;;;;20.23;100.00;101516.38;2615354;36;20035;-48
2022/07/31 08:24:38;;;;;;;18.13;11.82;;;;;;;20.18;100.00;101518.78;2615700;36;20103;-47
2022/07/31 08:29:50;;;;;;;15.43;10.60;;;;;;;20.33;100.00;101515.25;2615388;36;20030;-50
2022/07/31 08:32:19;;;;;;;17.48;11.20;;;;;;;20.18;100.00;101517.94;2616003;36;20045;-46
2022/07/31 08:34:47;;;;;;;18.73;12.68;;;;;;;20.23;100.00;101521.84;2614967;31;20638;-49
2022/07/31 08:37:18;;;;;;;18.50;12.18;;;;;;;20.36;100.00;101532.16;2614122;36;20063;-50
2022/07/31 08:39:46;;;;;;;18.58;11.18;;;;;;;20.43;100.00;101526.78;2615197;36;20049;-48
2022/07/31 08:42:15;;;;;;;18.65;12.20;;;;;;;20.37;100.00;101530.25;2614422;36;20149;-47
2022/07/31 08:44:45;;;;;;;18.13;11.75;;;;;;;20.28;100.00;101537.69;2615181;36;20599;-49
2022/07/31 08:47:17;;;;;;;21.02;12.70;;;;;;;20.11;100.00;101539.69;2614865;36;20035;-51
2022/07/31 08:49:47;;;;;;;21.25;12.15;;;;;;;20.19;100.00;101539.63;2615432;36;20038;-50
2022/07/31 08:52:20;;;;;;;16.02;11.60;;;;;;;20.37;100.00;101543.94;2614709;31;20034;-51
2022/07/31 08:54:51;;;;;;;20.70;13.35;;;;;;;20.34;100.00;101549.78;2614920;36;20069;-49
2022/07/31 08:57:19;;;;;;;23.15;13.75;;;;;;;20.34;100.00;101541.56;2614938;36;20069;-51
2022/07/31 08:59:51;;;;;;;19.67;13.50;;;;;;;20.55;100.00;101543.59;2615077;36;20045;-50
2022/07/31 09:02:22;;;;;;;24.73;14.40;;;;;;;20.76;100.00;101541.03;2614377;36;20039;-53
2022/07/31 09:04:50;;;;;;;21.90;13.23;;;;;;;20.70;100.00;101538.19;2614629;36;20034;-48
2022/07/31 09:07:18;;;;;;;23.05;14.10;;;;;;;20.72;100.00;101538.84;2615460;31;20578;-48
2022/07/31 09:09:48;;;;;;;25.70;15.15;;;;;;;20.87;100.00;101534.22;2615333;36;20026;-49
2022/07/31 09:12:27;;;;;;;21.55;14.57;;;;;;;21.03;100.00;101527.72;2614716;36;20034;-50
2022/07/31 09:14:57;;;;;;;;;;;;;;;21.21;100.00;101521.84;2614719;36;20035;-48
2022/07/31 09:17:36;;;;;;;24.45;14.20;;;;;;;21.27;100.00;101518.34;2614846;36;20073;-48
2022/07/31 09:20:05;;;;;;;22.13;12.55;;;;;;;21.58;100.00;101514.53;2615207;36;20038;-50
2022/07/31 09:22:34;;;;;;;21.30;13.38;;;;;;;21.57;100.00;101510.13;2615446;31;20039;-49
2022/07/31 09:25:10;;;;;;;21.48;13.55;;;;;;;21.33;100.00;101523.09;2615107;36;20030;-49
2022/07/31 09:27:39;;;;;;;22.45;13.95;;;;;;;21.52;100.00;101509.84;2614988;36;20026;-51
2022/07/31 09:30:09;;;;;;;23.67;14.05;;;;;;;21.57;100.00;101517.47;2615127;36;20039;-49
2022/07/31 09:32:42;;;;;;;22.30;13.98;;;;;;;21.68;100.00;101523.31;2614502;36;20046;-47
2022/07/31 09:35:15;;;;;;;21.05;13.95;;;;;;;21.66;100.00;101527.31;2614072;36;20031;-46
2022/07/31 09:37:49;;;;;;;26.83;14.45;;;;;;;21.35;100.00;101523.72;2615169;36;20039;-50
2022/07/31 09:40:17;;;;;;;19.52;12.93;;;;;;;21.42;100.00;101520.22;2614951;36;20023;-49
2022/07/31 09:42:47;;;;;;;26.90;13.55;;;;;;;21.52;100.00;101515.31;2614623;36;20065;-47
2022/07/31 09:45:21;;;;;;;24.05;14.23;;;;;;;21.32;100.00;101526.84;2615334;31;20405;-48
2022/07/31 09:48:04;;;;;;;24.92;14.25;;;;;;;21.07;100.00;101512.63;2614079;36;20026;-46
2022/07/31 09:50:32;;;;;;;21.85;14.20;;;;;;;21.12;100.00;101514.78;2615137;36;20069;-49
2022/07/31 09:53:02;;;;;;;23.75;14.10;;;;;;;21.20;100.00;101522.91;2614854;31;20065;-51
2022/07/31 09:55:30;;;;;;;23.50;14.63;;;;;;;21.34;100.00;101527.50;2615166;36;20034;-47
2022/07/31 09:58:00;;;;;;;24.20;13.60;;;;;;;21.35;100.00;101521.00;2615242;36;20031;-46
2022/07/31 10:00:29;;;;;;;22.25;14.45;;;;;;;21.41;100.00;101519.38;2614932;36;20606;-49
2022/07/31 10:03:02;;;;;;;21.52;14.98;;;;;;;21.45;100.00;101514.34;2614648;36;20575;-50
2022/07/31 10:05:30;;;;;;;24.85;14.88;;;;;;;21.69;100.00;101510.47;2615316;36;20034;-48
2022/07/31 10:08:00;;;;;;;23.17;14.57;;;;;;;21.87;100.00;101501.81;2614093;36;20046;-46
2022/07/31 10:10:30;;;;;;;26.40;15.73;;;;;;;21.98;100.00;101497.69;2633292;36;20062;-49
2022/07/31 10:13:03;;;;;;;24.00;14.75;;;;;;;21.99;100.00;101500.22;2614186;36;20026;-50
2022/07/31 10:15:34;;;;;;;23.75;14.65;;;;;;;21.96;100.00;101500.63;2615890;36;20054;-50
2022/07/31 10:18:07;;;;;;;29.80;15.80;;;;;;;21.90;100.00;101484.13;2614508;36;20031;-51
2022/07/31 10:20:36;;;;;;;21.05;14.35;;;;;;;21.42;100.00;101492.84;2614679;36;20035;-51
2022/07/31 10:23:12;;;;;;;28.23;15.93;;;;;;;21.26;100.00;101499.38;2614472;36;20031;-47
2022/07/31 10:25:46;;;;;;;24.00;15.07;;;;;;;21.38;100.00;101497.00;2615189;36;20098;-47
2022/07/31 10:28:21;;;;;;;24.65;15.15;;;;;;;21.51;100.00;101491.75;2614144;31;20038;-49
2022/07/31 10:30:49;;;;;;;24.33;15.23;;;;;;;21.84;100.00;101485.75;2614346;36;20039;-51
2022/07/31 10:33:21;;;;;;;27.45;14.63;;;;;;;21.97;100.00;101485.88;2614219;36;20034;-47
2022/07/31 10:36:05;;;;;;;23.52;15.05;;;;;;;21.82;100.00;101490.56;2614435;36;20038;-49
2022/07/31 10:38:41;;;;;;;26.75;16.55;;;;;;;21.39;100.00;101487.75;2616300;31;20046;-52
2022/07/31 10:41:24;;;;;;;28.80;17.08;;;;;;;21.33;100.00;101490.22;2616029;54;20031;-56
2022/07/31 10:43:56;;;;;;;28.73;17.08;;;;;;;21.41;100.00;101493.91;2615302;36;20554;-56
2022/07/31 10:46:31;;;;;;;29.10;17.50;;;;;;;21.28;100.00;101511.00;2615078;36;20067;-56
2022/07/31 10:49:02;;;;;;;28.65;19.13;;;;;;;21.09;100.00;101493.28;2615672;36;20082;-50
2022/07/31 10:51:31;;;;;;;28.90;17.35;;;;;;;20.94;100.00;101491.41;2615454;36;20038;-52
2022/07/31 10:54:01;;;;;;;28.48;17.45;;;;;;;21.02;100.00;101484.97;2615780;36;20042;-54
2022/07/31 10:56:30;;;;;;;31.08;17.27;;;;;;;20.74;100.00;101485.63;2614815;31;20053;-54
2022/07/31 10:59:00;;;;;;;29.08;17.92;;;;;;;20.45;100.00;101480.94;2616053;36;20420;-57
2022/07/31 11:01:28;;;;;;;29.13;18.63;;;;;;;20.52;100.00;101481.06;2614513;36;20126;-55
2022/07/31 11:04:05;;;;;;;30.33;17.70;;;;;;;20.61;100.00;101486.28;2615560;36;20045;-54
2022/07/31 11:06:40;;;;;;;28.55;17.42;;;;;;;20.78;100.00;101488.88;2615232;36;20042;-51
2022/07/31 11:09:08;;;;;;;26.88;17.73;;;;;;;20.93;100.00;101481.47;2616369;36;20427;-56
2022/07/31 11:11:38;;;;;;;32.20;18.67;;;;;;;20.94;100.00;101485.94;2614598;36;20090;-54
2022/07/31 11:14:06;;;;;;;28.10;18.30;;;;;;;20.99;100.00;101478.00;2615827;31;20559;-56
2022/07/31 11:16:35;;;;;;;30.08;19.35;;;;;;;20.87;100.00;101471.31;2614761;36;20454;-57
2022/07/31 11:19:08;;;;;;;28.98;19.83;;;;;;;20.75;100.00;101483.78;2614892;36;20031;-55
2022/07/31 11:21:39;;;;;;;34.42;20.95;;;;;;;20.56;100.00;101477.78;2615438;36;20057;-53
2022/07/31 11:24:16;;;;;;;28.98;20.08;;;;;;;20.64;100.00;101485.91;2616052;36;20122;-54
2022/07/31 11:26:50;;;;;;;29.30;19.02;;;;;;;20.54;100.00;101478.97;2614891;36;20038;-56
2022/07/31 11:29:29;;;;;;;35.28;21.10;;;;;;;20.62;100.00;101478.91;2615600;36;20046;-59